sensor_id;sensor_type;location;lat;lon;timestamp;P1;durP1;ratioP1;P2;durP2;ratioP2
25155;SDS011;21913;52.456;13.634;2023-05-07T00:03:33;1.98;;;1.48;;
25155;SDS011;21913;52.456;13.634;2023-05-07T00:08:34;2.38;;;1.27;;
25155;SDS011;21913;52.456;13.634;2023-05-07T00:13:36;2.33;;;1.60;;
25155;SDS011;21913;52.456;13.634;2023-05-07T00:18:37;1.77;;;1.40;;
25155;SDS011;21913;52.456;13.634;2023-05-07T00:23:39;2.13;;;1.40;;
25155;SDS011;21913;52.456;13.634;2023-05-07T00:28:40;1.80;;;1.40;;
25155;SDS011;21913;52.456;13.634;2023-05-07T00:33:42;1.70;;;1.45;;
25155;SDS011;21913;52.456;13.634;2023-05-07T00:38:43;1.98;;;1.40;;
25155;SDS011;21913;52.456;13.634;2023-05-07T00:43:45;2.08;;;1.48;;
25155;SDS011;21913;52.456;13.634;2023-05-07T00:48:47;2.08;;;1.33;;
25155;SDS011;21913;52.456;13.634;2023-05-07T00:53:50;2.20;;;1.33;;
25155;SDS011;21913;52.456;13.634;2023-05-07T00:58:52;2.30;;;1.50;;
25155;SDS011;21913;52.456;13.634;2023-05-07T01:03:54;1.50;;;1.20;;
25155;SDS011;21913;52.456;13.634;2023-05-07T01:08:55;1.83;;;1.40;;
25155;SDS011;21913;52.456;13.634;2023-05-07T01:13:57;1.85;;;1.30;;
25155;SDS011;21913;52.456;13.634;2023-05-07T01:19:00;2.00;;;1.25;;
25155;SDS011;21913;52.456;13.634;2023-05-07T01:24:02;2.08;;;1.20;;
25155;SDS011;21913;52.456;13.634;2023-05-07T01:29:07;1.85;;;1.30;;
25155;SDS011;21913;52.456;13.634;2023-05-07T01:34:08;1.83;;;1.33;;
25155;SDS011;21913;52.456;13.634;2023-05-07T01:39:13;2.00;;;1.23;;
25155;SDS011;21913;52.456;13.634;2023-05-07T01:44:15;1.80;;;1.30;;
25155;SDS011;21913;52.456;13.634;2023-05-07T01:49:19;1.83;;;1.55;;
25155;SDS011;21913;52.456;13.634;2023-05-07T01:54:24;1.92;;;1.42;;
25155;SDS011;21913;52.456;13.634;2023-05-07T01:59:27;1.50;;;1.20;;
25155;SDS011;21913;52.456;13.634;2023-05-07T02:04:29;1.63;;;1.33;;
25155;SDS011;21913;52.456;13.634;2023-05-07T02:09:30;1.90;;;1.40;;
25155;SDS011;21913;52.456;13.634;2023-05-07T02:14:32;1.85;;;1.23;;
25155;SDS011;21913;52.456;13.634;2023-05-07T02:19:34;1.50;;;1.10;;
25155;SDS011;21913;52.456;13.634;2023-05-07T02:24:36;1.20;;;1.10;;
25155;SDS011;21913;52.456;13.634;2023-05-07T02:29:38;1.60;;;1.30;;
25155;SDS011;21913;52.456;13.634;2023-05-07T02:34:39;1.70;;;1.23;;
25155;SDS011;21913;52.456;13.634;2023-05-07T02:39:41;1.73;;;1.20;;
25155;SDS011;21913;52.456;13.634;2023-05-07T02:44:42;1.48;;;1.17;;
25155;SDS011;21913;52.456;13.634;2023-05-07T02:49:44;1.58;;;1.10;;
25155;SDS011;21913;52.456;13.634;2023-05-07T02:54:47;1.65;;;1.35;;
25155;SDS011;21913;52.456;13.634;2023-05-07T02:59:48;2.10;;;1.60;;
25155;SDS011;21913;52.456;13.634;2023-05-07T03:04:51;1.90;;;1.30;;
25155;SDS011;21913;52.456;13.634;2023-05-07T03:09:53;1.55;;;1.27;;
25155;SDS011;21913;52.456;13.634;2023-05-07T03:14:54;1.65;;;1.30;;
25155;SDS011;21913;52.456;13.634;2023-05-07T03:19:56;1.52;;;1.20;;
25155;SDS011;21913;52.456;13.634;2023-05-07T03:24:57;1.60;;;1.25;;
25155;SDS011;21913;52.456;13.634;2023-05-07T03:29:59;1.83;;;1.30;;
25155;SDS011;21913;52.456;13.634;2023-05-07T03:35:01;1.52;;;1.30;;
25155;SDS011;21913;52.456;13.634;2023-05-07T03:40:03;1.70;;;1.20;;
25155;SDS011;21913;52.456;13.634;2023-05-07T03:45:14;1.45;;;1.20;;
25155;SDS011;21913;52.456;13.634;2023-05-07T03:50:21;1.95;;;1.27;;
25155;SDS011;21913;52.456;13.634;2023-05-07T03:55:23;1.77;;;1.30;;
25155;SDS011;21913;52.456;13.634;2023-05-07T04:00:30;1.70;;;1.40;;
25155;SDS011;21913;52.456;13.634;2023-05-07T04:05:32;1.83;;;1.40;;
25155;SDS011;21913;52.456;13.634;2023-05-07T04:10:36;1.75;;;1.45;;
25155;SDS011;21913;52.456;13.634;2023-05-07T04:15:42;1.60;;;1.30;;
25155;SDS011;21913;52.456;13.634;2023-05-07T04:20:48;2.05;;;1.33;;
25155;SDS011;21913;52.456;13.634;2023-05-07T04:25:50;1.85;;;1.40;;
25155;SDS011;21913;52.456;13.634;2023-05-07T04:30:57;2.10;;;1.48;;
25155;SDS011;21913;52.456;13.634;2023-05-07T04:36:02;2.88;;;1.60;;
25155;SDS011;21913;52.456;13.634;2023-05-07T04:41:09;1.95;;;1.52;;
25155;SDS011;21913;52.456;13.634;2023-05-07T04:46:14;1.98;;;1.45;;
25155;SDS011;21913;52.456;13.634;2023-05-07T04:51:18;2.35;;;1.60;;
25155;SDS011;21913;52.456;13.634;2023-05-07T04:56:19;1.90;;;1.48;;
25155;SDS011;21913;52.456;13.634;2023-05-07T05:01:21;2.28;;;1.60;;
25155;SDS011;21913;52.456;13.634;2023-05-07T05:06:23;1.98;;;1.50;;
25155;SDS011;21913;52.456;13.634;2023-05-07T05:11:25;2.03;;;1.58;;
25155;SDS011;21913;52.456;13.634;2023-05-07T05:16:28;2.60;;;1.55;;
25155;SDS011;21913;52.456;13.634;2023-05-07T05:21:30;1.55;;;1.35;;
25155;SDS011;21913;52.456;13.634;2023-05-07T05:26:38;1.80;;;1.60;;
25155;SDS011;21913;52.456;13.634;2023-05-07T05:31:41;2.03;;;1.50;;
25155;SDS011;21913;52.456;13.634;2023-05-07T05:36:43;2.60;;;1.80;;
25155;SDS011;21913;52.456;13.634;2023-05-07T05:41:47;2.45;;;1.60;;
25155;SDS011;21913;52.456;13.634;2023-05-07T05:46:50;2.08;;;1.70;;
25155;SDS011;21913;52.456;13.634;2023-05-07T05:51:52;2.03;;;1.70;;
25155;SDS011;21913;52.456;13.634;2023-05-07T05:56:55;1.95;;;1.73;;
25155;SDS011;21913;52.456;13.634;2023-05-07T06:01:58;2.70;;;1.90;;
25155;SDS011;21913;52.456;13.634;2023-05-07T06:06:59;1.75;;;1.52;;
25155;SDS011;21913;52.456;13.634;2023-05-07T06:12:01;2.10;;;1.70;;
25155;SDS011;21913;52.456;13.634;2023-05-07T06:17:05;2.47;;;2.00;;
25155;SDS011;21913;52.456;13.634;2023-05-07T06:22:06;2.50;;;1.88;;
25155;SDS011;21913;52.456;13.634;2023-05-07T06:27:09;2.47;;;1.65;;
25155;SDS011;21913;52.456;13.634;2023-05-07T06:32:12;2.97;;;1.98;;
25155;SDS011;21913;52.456;13.634;2023-05-07T06:37:16;3.28;;;2.03;;
25155;SDS011;21913;52.456;13.634;2023-05-07T06:42:38;2.53;;;1.85;;
25155;SDS011;21913;52.456;13.634;2023-05-07T06:48:09;2.08;;;1.80;;
25155;SDS011;21913;52.456;13.634;2023-05-07T06:53:20;2.25;;;1.88;;
25155;SDS011;21913;52.456;13.634;2023-05-07T06:58:23;2.28;;;1.85;;
25155;SDS011;21913;52.456;13.634;2023-05-07T07:03:25;2.78;;;2.10;;
25155;SDS011;21913;52.456;13.634;2023-05-07T07:08:28;2.40;;;1.95;;
25155;SDS011;21913;52.456;13.634;2023-05-07T07:13:30;2.80;;;2.00;;
25155;SDS011;21913;52.456;13.634;2023-05-07T07:18:32;2.20;;;1.88;;
25155;SDS011;21913;52.456;13.634;2023-05-07T07:23:34;3.55;;;2.10;;
25155;SDS011;21913;52.456;13.634;2023-05-07T07:28:41;3.15;;;2.13;;
25155;SDS011;21913;52.456;13.634;2023-05-07T07:33:44;2.78;;;1.80;;
25155;SDS011;21913;52.456;13.634;2023-05-07T07:38:46;2.92;;;2.10;;
25155;SDS011;21913;52.456;13.634;2023-05-07T07:43:50;2.75;;;2.10;;
25155;SDS011;21913;52.456;13.634;2023-05-07T07:48:54;4.95;;;2.00;;
25155;SDS011;21913;52.456;13.634;2023-05-07T07:53:55;3.03;;;1.80;;
25155;SDS011;21913;52.456;13.634;2023-05-07T07:58:57;3.15;;;2.10;;
25155;SDS011;21913;52.456;13.634;2023-05-07T08:03:59;3.17;;;2.08;;
25155;SDS011;21913;52.456;13.634;2023-05-07T08:09:02;2.83;;;2.00;;
25155;SDS011;21913;52.456;13.634;2023-05-07T08:14:05;3.63;;;2.20;;
25155;SDS011;21913;52.456;13.634;2023-05-07T08:19:06;3.22;;;2.40;;
25155;SDS011;21913;52.456;13.634;2023-05-07T08:24:09;3.05;;;2.10;;
25155;SDS011;21913;52.456;13.634;2023-05-07T08:29:10;3.13;;;2.10;;
25155;SDS011;21913;52.456;13.634;2023-05-07T08:34:12;2.90;;;2.30;;
25155;SDS011;21913;52.456;13.634;2023-05-07T08:39:16;1.95;;;1.75;;
25155;SDS011;21913;52.456;13.634;2023-05-07T08:44:21;2.70;;;2.08;;
25155;SDS011;21913;52.456;13.634;2023-05-07T08:49:24;2.60;;;2.20;;
25155;SDS011;21913;52.456;13.634;2023-05-07T08:54:27;2.75;;;2.00;;
25155;SDS011;21913;52.456;13.634;2023-05-07T08:59:30;3.75;;;2.33;;
25155;SDS011;21913;52.456;13.634;2023-05-07T09:04:32;2.40;;;2.00;;
25155;SDS011;21913;52.456;13.634;2023-05-07T09:09:34;2.45;;;1.98;;
25155;SDS011;21913;52.456;13.634;2023-05-07T09:14:38;3.03;;;1.92;;
25155;SDS011;21913;52.456;13.634;2023-05-07T09:19:40;2.80;;;2.20;;
25155;SDS011;21913;52.456;13.634;2023-05-07T09:24:47;3.05;;;2.00;;
25155;SDS011;21913;52.456;13.634;2023-05-07T09:29:50;2.72;;;2.20;;
25155;SDS011;21913;52.456;13.634;2023-05-07T09:34:51;2.17;;;1.83;;
25155;SDS011;21913;52.456;13.634;2023-05-07T09:39:56;3.05;;;2.13;;
25155;SDS011;21913;52.456;13.634;2023-05-07T09:45:00;2.60;;;2.00;;
25155;SDS011;21913;52.456;13.634;2023-05-07T09:50:08;2.60;;;2.00;;
25155;SDS011;21913;52.456;13.634;2023-05-07T09:55:12;14.40;;;9.02;;
25155;SDS011;21913;52.456;13.634;2023-05-07T10:00:17;18.98;;;13.20;;
25155;SDS011;21913;52.456;13.634;2023-05-07T10:05:22;18.15;;;12.85;;
25155;SDS011;21913;52.456;13.634;2023-05-07T10:10:29;17.02;;;11.80;;
25155;SDS011;21913;52.456;13.634;2023-05-07T10:15:34;17.20;;;11.73;;
25155;SDS011;21913;52.456;13.634;2023-05-07T10:20:36;14.35;;;10.48;;
25155;SDS011;21913;52.456;13.634;2023-05-07T10:25:42;14.43;;;10.40;;
25155;SDS011;21913;52.456;13.634;2023-05-07T10:31:01;12.98;;;9.80;;
25155;SDS011;21913;52.456;13.634;2023-05-07T10:36:11;13.60;;;9.93;;
25155;SDS011;21913;52.456;13.634;2023-05-07T10:41:13;13.27;;;9.25;;
25155;SDS011;21913;52.456;13.634;2023-05-07T10:51:28;12.73;;;9.00;;
25155;SDS011;21913;52.456;13.634;2023-05-07T10:56:42;12.35;;;8.23;;
25155;SDS011;21913;52.456;13.634;2023-05-07T11:12:45;11.07;;;7.57;;
25155;SDS011;21913;52.456;13.634;2023-05-07T11:17:54;11.40;;;7.80;;
25155;SDS011;21913;52.456;13.634;2023-05-07T11:22:59;10.27;;;7.05;;
25155;SDS011;21913;52.456;13.634;2023-05-07T11:28:17;11.07;;;6.97;;
25155;SDS011;21913;52.456;13.634;2023-05-07T11:33:30;10.52;;;6.90;;
25155;SDS011;21913;52.456;13.634;2023-05-07T11:38:34;9.48;;;7.20;;
25155;SDS011;21913;52.456;13.634;2023-05-07T11:43:36;10.60;;;6.88;;
25155;SDS011;21913;52.456;13.634;2023-05-07T11:48:38;9.27;;;6.40;;
25155;SDS011;21913;52.456;13.634;2023-05-07T11:53:41;8.93;;;6.05;;
25155;SDS011;21913;52.456;13.634;2023-05-07T11:58:44;8.38;;;6.38;;
25155;SDS011;21913;52.456;13.634;2023-05-07T12:03:46;8.15;;;5.75;;
25155;SDS011;21913;52.456;13.634;2023-05-07T12:08:48;7.60;;;5.68;;
25155;SDS011;21913;52.456;13.634;2023-05-07T12:13:50;7.65;;;5.40;;
25155;SDS011;21913;52.456;13.634;2023-05-07T12:18:52;7.93;;;5.75;;
25155;SDS011;21913;52.456;13.634;2023-05-07T12:23:54;7.90;;;5.93;;
25155;SDS011;21913;52.456;13.634;2023-05-07T12:28:56;7.30;;;5.20;;
25155;SDS011;21913;52.456;13.634;2023-05-07T12:33:58;7.80;;;5.50;;
25155;SDS011;21913;52.456;13.634;2023-05-07T12:39:00;6.03;;;5.07;;
25155;SDS011;21913;52.456;13.634;2023-05-07T12:44:04;7.03;;;5.15;;
25155;SDS011;21913;52.456;13.634;2023-05-07T12:49:05;6.85;;;4.90;;
25155;SDS011;21913;52.456;13.634;2023-05-07T12:54:07;6.38;;;4.97;;
25155;SDS011;21913;52.456;13.634;2023-05-07T12:59:08;5.82;;;4.65;;
25155;SDS011;21913;52.456;13.634;2023-05-07T13:04:10;5.75;;;4.65;;
25155;SDS011;21913;52.456;13.634;2023-05-07T13:09:11;6.65;;;4.80;;
25155;SDS011;21913;52.456;13.634;2023-05-07T13:14:13;5.50;;;4.38;;
25155;SDS011;21913;52.456;13.634;2023-05-07T13:19:14;5.47;;;4.55;;
25155;SDS011;21913;52.456;13.634;2023-05-07T13:24:16;5.60;;;4.40;;
25155;SDS011;21913;52.456;13.634;2023-05-07T13:29:17;4.97;;;4.20;;
25155;SDS011;21913;52.456;13.634;2023-05-07T13:34:19;6.15;;;4.53;;
25155;SDS011;21913;52.456;13.634;2023-05-07T13:39:20;6.70;;;4.18;;
25155;SDS011;21913;52.456;13.634;2023-05-07T13:44:22;10.70;;;4.63;;
25155;SDS011;21913;52.456;13.634;2023-05-07T13:49:23;5.68;;;4.40;;
25155;SDS011;21913;52.456;13.634;2023-05-07T13:54:25;5.35;;;4.10;;
25155;SDS011;21913;52.456;13.634;2023-05-07T13:59:26;4.75;;;3.97;;
25155;SDS011;21913;52.456;13.634;2023-05-07T14:04:28;4.65;;;3.75;;
25155;SDS011;21913;52.456;13.634;2023-05-07T14:09:29;5.55;;;4.00;;
25155;SDS011;21913;52.456;13.634;2023-05-07T14:14:31;4.97;;;3.92;;
25155;SDS011;21913;52.456;13.634;2023-05-07T14:19:32;4.32;;;3.65;;
25155;SDS011;21913;52.456;13.634;2023-05-07T14:24:34;4.72;;;3.92;;
25155;SDS011;21913;52.456;13.634;2023-05-07T14:29:38;5.50;;;3.83;;
25155;SDS011;21913;52.456;13.634;2023-05-07T14:34:39;4.50;;;3.75;;
25155;SDS011;21913;52.456;13.634;2023-05-07T14:39:41;4.93;;;4.00;;
25155;SDS011;21913;52.456;13.634;2023-05-07T14:44:42;3.85;;;3.45;;
25155;SDS011;21913;52.456;13.634;2023-05-07T14:49:44;4.22;;;3.28;;
25155;SDS011;21913;52.456;13.634;2023-05-07T14:54:45;4.97;;;3.70;;
25155;SDS011;21913;52.456;13.634;2023-05-07T14:59:46;5.18;;;3.60;;
25155;SDS011;21913;52.456;13.634;2023-05-07T15:04:48;4.78;;;3.90;;
25155;SDS011;21913;52.456;13.634;2023-05-07T15:09:49;4.38;;;3.55;;
25155;SDS011;21913;52.456;13.634;2023-05-07T15:14:51;4.60;;;3.55;;
25155;SDS011;21913;52.456;13.634;2023-05-07T15:19:52;5.07;;;3.58;;
25155;SDS011;21913;52.456;13.634;2023-05-07T15:24:54;4.18;;;3.50;;
25155;SDS011;21913;52.456;13.634;2023-05-07T15:29:56;4.05;;;3.50;;
25155;SDS011;21913;52.456;13.634;2023-05-07T15:34:58;4.00;;;3.40;;
25155;SDS011;21913;52.456;13.634;2023-05-07T15:40:00;4.82;;;3.75;;
25155;SDS011;21913;52.456;13.634;2023-05-07T15:45:01;5.35;;;3.78;;
25155;SDS011;21913;52.456;13.634;2023-05-07T15:50:03;5.55;;;3.72;;
25155;SDS011;21913;52.456;13.634;2023-05-07T15:55:05;4.75;;;3.50;;
25155;SDS011;21913;52.456;13.634;2023-05-07T16:00:07;4.72;;;3.30;;
25155;SDS011;21913;52.456;13.634;2023-05-07T16:05:14;5.25;;;3.50;;
25155;SDS011;21913;52.456;13.634;2023-05-07T16:10:16;4.22;;;3.22;;
25155;SDS011;21913;52.456;13.634;2023-05-07T16:15:17;4.68;;;3.20;;
25155;SDS011;21913;52.456;13.634;2023-05-07T16:20:19;3.80;;;3.30;;
25155;SDS011;21913;52.456;13.634;2023-05-07T16:25:20;4.18;;;3.10;;
25155;SDS011;21913;52.456;13.634;2023-05-07T16:30:22;4.63;;;3.28;;
25155;SDS011;21913;52.456;13.634;2023-05-07T16:35:23;4.30;;;3.17;;
25155;SDS011;21913;52.456;13.634;2023-05-07T16:40:25;3.90;;;3.30;;
25155;SDS011;21913;52.456;13.634;2023-05-07T16:45:26;4.05;;;3.25;;
25155;SDS011;21913;52.456;13.634;2023-05-07T16:50:28;4.07;;;3.40;;
25155;SDS011;21913;52.456;13.634;2023-05-07T16:55:30;6.18;;;3.10;;
25155;SDS011;21913;52.456;13.634;2023-05-07T17:00:31;4.88;;;4.03;;
25155;SDS011;21913;52.456;13.634;2023-05-07T17:05:39;14.60;;;11.35;;
25155;SDS011;21913;52.456;13.634;2023-05-07T17:10:41;23.35;;;13.82;;
25155;SDS011;21913;52.456;13.634;2023-05-07T17:15:42;20.42;;;13.43;;
25155;SDS011;21913;52.456;13.634;2023-05-07T17:20:44;23.63;;;14.30;;
25155;SDS011;21913;52.456;13.634;2023-05-07T17:25:45;20.38;;;14.30;;
25155;SDS011;21913;52.456;13.634;2023-05-07T17:30:47;19.42;;;13.20;;
25155;SDS011;21913;52.456;13.634;2023-05-07T17:35:49;17.05;;;12.55;;
25155;SDS011;21913;52.456;13.634;2023-05-07T17:40:53;17.85;;;11.68;;
25155;SDS011;21913;52.456;13.634;2023-05-07T17:45:54;18.08;;;11.50;;
25155;SDS011;21913;52.456;13.634;2023-05-07T17:51:02;14.88;;;11.02;;
25155;SDS011;21913;52.456;13.634;2023-05-07T17:56:04;15.60;;;10.70;;
25155;SDS011;21913;52.456;13.634;2023-05-07T18:01:05;12.93;;;10.32;;
25155;SDS011;21913;52.456;13.634;2023-05-07T18:06:07;14.00;;;10.18;;
25155;SDS011;21913;52.456;13.634;2023-05-07T18:11:09;12.95;;;9.88;;
25155;SDS011;21913;52.456;13.634;2023-05-07T18:16:11;13.70;;;10.38;;
25155;SDS011;21913;52.456;13.634;2023-05-07T18:21:13;13.10;;;9.77;;
25155;SDS011;21913;52.456;13.634;2023-05-07T18:26:15;14.32;;;10.18;;
25155;SDS011;21913;52.456;13.634;2023-05-07T18:31:16;12.95;;;9.30;;
25155;SDS011;21913;52.456;13.634;2023-05-07T18:36:18;13.02;;;9.57;;
25155;SDS011;21913;52.456;13.634;2023-05-07T18:41:19;11.90;;;9.55;;
25155;SDS011;21913;52.456;13.634;2023-05-07T18:46:21;14.07;;;9.38;;
25155;SDS011;21913;52.456;13.634;2023-05-07T18:51:22;13.25;;;9.30;;
25155;SDS011;21913;52.456;13.634;2023-05-07T18:56:24;10.60;;;8.70;;
25155;SDS011;21913;52.456;13.634;2023-05-07T19:01:25;11.90;;;9.02;;
25155;SDS011;21913;52.456;13.634;2023-05-07T19:06:27;11.38;;;8.55;;
25155;SDS011;21913;52.456;13.634;2023-05-07T19:11:29;14.02;;;8.48;;
25155;SDS011;21913;52.456;13.634;2023-05-07T19:16:31;14.63;;;8.57;;
25155;SDS011;21913;52.456;13.634;2023-05-07T19:21:32;10.23;;;8.50;;
25155;SDS011;21913;52.456;13.634;2023-05-07T19:26:34;10.95;;;8.25;;
25155;SDS011;21913;52.456;13.634;2023-05-07T19:31:35;10.55;;;8.07;;
25155;SDS011;21913;52.456;13.634;2023-05-07T19:36:37;9.80;;;7.63;;
25155;SDS011;21913;52.456;13.634;2023-05-07T19:41:39;10.00;;;8.00;;
25155;SDS011;21913;52.456;13.634;2023-05-07T19:46:40;11.30;;;7.85;;
25155;SDS011;21913;52.456;13.634;2023-05-07T19:51:42;11.68;;;8.27;;
25155;SDS011;21913;52.456;13.634;2023-05-07T19:56:43;9.60;;;7.68;;
25155;SDS011;21913;52.456;13.634;2023-05-07T20:01:45;10.80;;;8.07;;
25155;SDS011;21913;52.456;13.634;2023-05-07T20:06:46;10.50;;;7.25;;
25155;SDS011;21913;52.456;13.634;2023-05-07T20:11:48;9.98;;;7.68;;
25155;SDS011;21913;52.456;13.634;2023-05-07T20:16:50;8.80;;;6.97;;
25155;SDS011;21913;52.456;13.634;2023-05-07T20:21:51;10.13;;;7.20;;
25155;SDS011;21913;52.456;13.634;2023-05-07T20:26:53;9.30;;;6.70;;
25155;SDS011;21913;52.456;13.634;2023-05-07T20:31:54;10.05;;;7.22;;
25155;SDS011;21913;52.456;13.634;2023-05-07T20:36:56;9.40;;;7.03;;
25155;SDS011;21913;52.456;13.634;2023-05-07T20:41:57;8.80;;;6.95;;
25155;SDS011;21913;52.456;13.634;2023-05-07T20:46:58;9.35;;;7.07;;
25155;SDS011;21913;52.456;13.634;2023-05-07T20:52:00;9.90;;;7.47;;
25155;SDS011;21913;52.456;13.634;2023-05-07T20:57:02;7.85;;;6.47;;
25155;SDS011;21913;52.456;13.634;2023-05-07T21:02:03;10.18;;;7.20;;
25155;SDS011;21913;52.456;13.634;2023-05-07T21:07:06;9.48;;;6.95;;
25155;SDS011;21913;52.456;13.634;2023-05-07T21:12:07;9.10;;;7.22;;
25155;SDS011;21913;52.456;13.634;2023-05-07T21:17:09;9.02;;;6.68;;
25155;SDS011;21913;52.456;13.634;2023-05-07T21:22:10;7.82;;;6.15;;
25155;SDS011;21913;52.456;13.634;2023-05-07T21:27:12;8.63;;;6.68;;
25155;SDS011;21913;52.456;13.634;2023-05-07T21:32:13;8.02;;;6.53;;
25155;SDS011;21913;52.456;13.634;2023-05-07T21:37:15;8.85;;;6.25;;
25155;SDS011;21913;52.456;13.634;2023-05-07T21:42:16;7.93;;;6.53;;
25155;SDS011;21913;52.456;13.634;2023-05-07T21:47:18;9.23;;;6.53;;
25155;SDS011;21913;52.456;13.634;2023-05-07T21:52:19;8.95;;;6.60;;
25155;SDS011;21913;52.456;13.634;2023-05-07T21:57:21;7.13;;;5.90;;
25155;SDS011;21913;52.456;13.634;2023-05-07T22:02:22;8.15;;;6.32;;
25155;SDS011;21913;52.456;13.634;2023-05-07T22:07:24;7.70;;;6.40;;
25155;SDS011;21913;52.456;13.634;2023-05-07T22:12:25;9.23;;;6.22;;
25155;SDS011;21913;52.456;13.634;2023-05-07T22:17:27;7.57;;;6.18;;
25155;SDS011;21913;52.456;13.634;2023-05-07T22:22:28;7.18;;;5.97;;
25155;SDS011;21913;52.456;13.634;2023-05-07T22:27:30;6.93;;;5.70;;
25155;SDS011;21913;52.456;13.634;2023-05-07T22:32:31;8.35;;;5.95;;
25155;SDS011;21913;52.456;13.634;2023-05-07T22:37:33;8.15;;;6.00;;
25155;SDS011;21913;52.456;13.634;2023-05-07T22:42:34;10.60;;;6.53;;
25155;SDS011;21913;52.456;13.634;2023-05-07T22:47:36;7.88;;;5.78;;
25155;SDS011;21913;52.456;13.634;2023-05-07T22:52:37;7.90;;;6.13;;
25155;SDS011;21913;52.456;13.634;2023-05-07T22:57:39;7.43;;;5.78;;
25155;SDS011;21913;52.456;13.634;2023-05-07T23:02:40;7.88;;;5.80;;
25155;SDS011;21913;52.456;13.634;2023-05-07T23:07:42;6.47;;;5.65;;
25155;SDS011;21913;52.456;13.634;2023-05-07T23:12:43;7.43;;;5.55;;
25155;SDS011;21913;52.456;13.634;2023-05-07T23:17:45;7.40;;;5.65;;
25155;SDS011;21913;52.456;13.634;2023-05-07T23:22:46;6.75;;;5.60;;
25155;SDS011;21913;52.456;13.634;2023-05-07T23:27:48;7.35;;;5.47;;
25155;SDS011;21913;52.456;13.634;2023-05-07T23:32:49;6.07;;;5.47;;
25155;SDS011;21913;52.456;13.634;2023-05-07T23:37:51;7.25;;;5.45;;
25155;SDS011;21913;52.456;13.634;2023-05-07T23:42:52;6.35;;;5.07;;
25155;SDS011;21913;52.456;13.634;2023-05-07T23:47:54;5.93;;;5.13;;
25155;SDS011;21913;52.456;13.634;2023-05-07T23:52:56;6.80;;;5.30;;
25155;SDS011;21913;52.456;13.634;2023-05-07T23:57:57;5.47;;;4.88;;
